Time;durP1;ratioP1;P1;durP2;ratioP2;P2;SDS_P1;SDS_P2;PMS_P1;PMS_P2;Temp;Humidity;BMP_temperature;BMP_pressure;BME280_temperature;BME280_humidity;BME280_pressure;Samples;Min_cycle;Max_cycle;Signal;HPM_P1;HPM_P2
2021/09/17 00:01:56;;;;;;;11.90;9.82;;;14.90;98.00;;;;;;4919195;28;20209;-89
2021/09/17 00:04:23;;;;;;;12.32;10.35;;;14.90;97.90;;;;;;4935680;28;20226;-89
2021/09/17 00:06:50;;;;;;;13.07;10.48;;;14.80;97.90;;;;;;4919483;28;20198;-89
2021/09/17 00:09:18;;;;;;;12.18;10.10;;;14.80;98.40;;;;;;4928400;28;20227;-89
2021/09/17 00:11:45;;;;;;;12.90;10.05;;;14.80;98.40;;;;;;4970693;28;20200;-89
2021/09/17 00:14:13;;;;;;;11.95;9.90;;;14.80;98.30;;;;;;4939631;28;20234;-90
2021/09/17 00:16:40;;;;;;;13.07;10.13;;;14.80;98.10;;;;;;4921362;28;20293;-89
2021/09/17 00:19:07;;;;;;;12.63;10.60;;;14.70;98.30;;;;;;4929495;28;20321;-89
2021/09/17 00:21:34;;;;;;;11.35;10.10;;;14.70;98.30;;;;;;4908171;28;20291;-89
2021/09/17 00:24:01;;;;;;;10.63;9.43;;;14.60;98.30;;;;;;4918290;28;20225;-89
2021/09/17 00:26:28;;;;;;;13.98;9.73;;;14.60;98.40;;;;;;4909935;28;20642;-89
2021/09/17 00:28:55;;;;;;;12.18;9.82;;;14.70;98.20;;;;;;4924513;28;20316;-90
2021/09/17 00:31:23;;;;;;;12.48;9.30;;;14.60;98.00;;;;;;4917504;28;20290;-89
2021/09/17 00:33:50;;;;;;;13.80;10.70;;;14.50;98.20;;;;;;4919733;28;20317;-89
2021/09/17 00:36:17;;;;;;;14.98;10.27;;;14.30;98.70;;;;;;4916045;28;20731;-89
2021/09/17 00:38:44;;;;;;;14.77;10.88;;;14.20;98.90;;;;;;4922585;28;20611;-89
2021/09/17 00:41:12;;;;;;;15.00;11.15;;;14.00;99.30;;;;;;4922752;29;20289;-89
2021/09/17 00:43:39;;;;;;;17.17;10.57;;;13.90;99.60;;;;;;4923535;28;20225;-89
2021/09/17 00:46:07;;;;;;;14.40;11.20;;;13.80;99.50;;;;;;4920346;28;20202;-88
2021/09/17 00:48:35;;;;;;;14.88;11.45;;;13.80;99.70;;;;;;4916233;28;20670;-87
2021/09/17 00:51:03;;;;;;;13.25;10.77;;;13.90;99.80;;;;;;4924723;28;20261;-89
2021/09/17 00:53:33;;;;;;;14.10;10.93;;;13.90;99.60;;;;;;4926001;28;20301;-87
2021/09/17 00:56:00;;;;;;;16.67;10.77;;;13.90;99.30;;;;;;4923338;28;20302;-88
2021/09/17 00:58:28;;;;;;;13.50;10.30;;;13.90;99.60;;;;;;4921671;28;20646;-88
2021/09/17 01:00:55;;;;;;;12.70;11.00;;;13.80;99.80;;;;;;4910754;28;20206;-87
2021/09/17 01:03:22;;;;;;;16.30;11.45;;;13.70;99.80;;;;;;4925445;28;20290;-88
2021/09/17 01:05:51;;;;;;;14.07;11.13;;;13.60;99.90;;;;;;4923662;28;20305;-89
2021/09/17 01:08:18;;;;;;;15.40;11.40;;;13.60;99.90;;;;;;4931888;28;20249;-88
2021/09/17 01:10:46;;;;;;;11.85;10.52;;;13.70;99.90;;;;;;4920948;28;20300;-89
2021/09/17 01:13:13;;;;;;;13.82;10.68;;;13.70;99.90;;;;;;4932457;28;20281;-88
2021/09/17 01:15:40;;;;;;;12.70;10.32;;;13.60;99.70;;;;;;4934575;28;20298;-88
2021/09/17 01:18:07;;;;;;;17.25;10.93;;;13.60;99.90;;;;;;4921348;28;20227;-89
2021/09/17 01:20:34;;;;;;;14.45;10.65;;;13.50;99.70;;;;;;4930582;28;20207;-89
2021/09/17 01:23:04;;;;;;;13.20;10.70;;;13.40;99.90;;;;;;4926633;28;20309;-88
2021/09/17 01:25:31;;;;;;;12.27;10.35;;;13.50;99.90;;;;;;4924002;28;20235;-88
2021/09/17 01:28:30;;;;;;;14.07;10.77;;;13.50;99.90;;;;;;4934477;28;20289;-88
2021/09/17 01:31:03;;;;;;;12.85;10.18;;;13.50;99.80;;;;;;4934380;28;20210;-88
2021/09/17 01:33:31;;;;;;;11.20;10.00;;;13.50;99.90;;;;;;4928453;28;20248;-87
2021/09/17 01:35:59;;;;;;;11.73;9.65;;;13.60;99.90;;;;;;4925380;28;20249;-88
2021/09/17 01:38:29;;;;;;;15.45;10.25;;;13.70;99.20;;;;;;4921532;28;20787;-89
2021/09/17 01:40:57;;;;;;;11.65;9.98;;;13.70;99.20;;;;;;4920473;28;20289;-90
2021/09/17 01:43:24;;;;;;;11.07;9.43;;;13.80;99.20;;;;;;4935474;28;20237;-90
2021/09/17 01:45:53;;;;;;;13.82;10.48;;;13.80;98.90;;;;;;4931810;28;20203;-88
2021/09/17 01:48:20;;;;;;;14.70;10.20;;;13.90;98.80;;;;;;4923169;28;20275;-88
2021/09/17 01:50:48;;;;;;;13.80;9.45;;;13.90;98.70;;;;;;4948623;28;20322;-89
2021/09/17 01:53:15;;;;;;;14.48;9.73;;;13.90;98.90;;;;;;4936954;28;20690;-87
2021/09/17 01:55:43;;;;;;;12.40;9.20;;;13.90;98.60;;;;;;4926981;28;20304;-89
2021/09/17 01:58:11;;;;;;;12.32;9.52;;;13.90;98.60;;;;;;4927358;28;20246;-88
2021/09/17 02:00:38;;;;;;;11.75;9.10;;;13.90;98.60;;;;;;4924343;28;20206;-88
2021/09/17 02:03:05;;;;;;;13.15;8.88;;;14.00;98.60;;;;;;4963829;28;20306;-88
2021/09/17 02:05:32;;;;;;;11.20;9.77;;;14.00;98.30;;;;;;4921954;28;20261;-88
2021/09/17 02:07:59;;;;;;;12.75;9.00;;;13.90;98.30;;;;;;4942682;28;20237;-88
2021/09/17 02:10:26;;;;;;;11.85;9.27;;;14.00;98.40;;;;;;4931035;28;20242;-87
2021/09/17 02:12:55;;;;;;;10.98;9.50;;;14.00;98.10;;;;;;4924659;28;20298;-89
2021/09/17 02:15:22;;;;;;;12.68;8.77;;;13.90;98.20;;;;;;4926333;28;20230;-88
2021/09/17 02:17:49;;;;;;;9.82;8.82;;;13.90;98.60;;;;;;4939370;28;20318;-88
2021/09/17 02:20:16;;;;;;;10.10;8.32;;;14.00;98.00;;;;;;4936978;28;20270;-88
2021/09/17 02:22:43;;;;;;;10.48;9.05;;;14.10;97.70;;;;;;4915548;28;20317;-88
2021/09/17 02:25:11;;;;;;;11.73;8.85;;;14.00;97.60;;;;;;4925860;28;20274;-87
2021/09/17 02:27:38;;;;;;;12.57;8.98;;;14.00;98.00;;;;;;4927482;28;20290;-87
2021/09/17 02:30:09;;;;;;;11.43;9.05;;;13.90;97.90;;;;;;4932828;28;20289;-88
2021/09/17 02:32:37;;;;;;;12.65;9.70;;;13.80;98.50;;;;;;4932458;28;20232;-89
2021/09/17 02:35:05;;;;;;;10.38;8.65;;;13.80;98.60;;;;;;4935754;28;20777;-89
2021/09/17 02:37:32;;;;;;;11.10;9.00;;;13.90;98.30;;;;;;4936339;28;20294;-87
2021/09/17 02:40:00;;;;;;;9.88;8.82;;;13.90;98.20;;;;;;4932443;28;20241;-88
2021/09/17 02:42:27;;;;;;;14.38;9.48;;;13.90;98.30;;;;;;4929237;28;20253;-88
2021/09/17 02:44:55;;;;;;;12.55;10.25;;;13.90;98.50;;;;;;4940480;28;20210;-88
2021/09/17 02:47:23;;;;;;;12.68;9.57;;;13.90;98.80;;;;;;4930440;28;20314;-88
2021/09/17 02:49:50;;;;;;;11.80;9.35;;;13.80;98.90;;;;;;4926672;28;20203;-87
2021/09/17 02:52:18;;;;;;;12.40;9.43;;;13.80;98.90;;;;;;4951248;28;20230;-87
2021/09/17 02:54:45;;;;;;;11.63;9.85;;;13.80;98.70;;;;;;4930413;28;20207;-87
2021/09/17 02:57:12;;;;;;;10.88;8.82;;;13.80;98.40;;;;;;4927500;28;20227;-89
2021/09/17 02:59:39;;;;;;;17.70;9.30;;;13.80;98.40;;;;;;4929409;28;20298;-88
2021/09/17 03:02:06;;;;;;;12.18;8.95;;;13.80;98.10;;;;;;4932429;28;20207;-88
2021/09/17 03:04:34;;;;;;;11.70;9.48;;;13.70;98.50;;;;;;4920336;28;20204;-87
2021/09/17 03:07:02;;;;;;;13.05;9.70;;;13.80;98.50;;;;;;4920550;28;20287;-88
2021/09/17 03:09:29;;;;;;;12.10;9.63;;;13.70;98.50;;;;;;4929618;28;20219;-90
2021/09/17 03:11:56;;;;;;;11.40;8.88;;;13.60;98.60;;;;;;4928370;28;20203;-88
2021/09/17 03:14:47;;;;;;;12.23;9.50;;;13.60;98.80;;;;;;4932824;28;20238;-87
2021/09/17 03:17:14;;;;;;;11.52;8.38;;;13.60;98.90;;;;;;4935533;28;20214;-88
2021/09/17 03:19:45;;;;;;;10.55;9.18;;;13.70;99.10;;;;;;4980491;28;20267;-87
2021/09/17 03:22:12;;;;;;;13.70;8.60;;;13.70;99.20;;;;;;4944481;28;20611;-88
2021/09/17 03:24:40;;;;;;;11.50;8.48;;;13.80;98.70;;;;;;4964586;28;20624;-87
2021/09/17 03:27:10;;;;;;;11.02;9.18;;;13.80;98.10;;;;;;4934704;28;20273;-88
2021/09/17 03:29:37;;;;;;;12.88;9.07;;;13.80;98.20;;;;;;4918004;28;20267;-88
2021/09/17 03:32:05;;;;;;;11.38;8.75;;;13.90;98.30;;;;;;4937793;28;20302;-88
2021/09/17 03:34:32;;;;;;;10.55;8.85;;;13.90;97.90;;;;;;4935554;28;20239;-88
2021/09/17 03:37:01;;;;;;;10.38;8.20;;;13.90;98.00;;;;;;4919070;28;20306;-88
2021/09/17 03:39:28;;;;;;;12.30;8.90;;;13.90;98.20;;;;;;4930879;28;20237;-87
2021/09/17 03:41:55;;;;;;;10.30;9.20;;;13.80;98.10;;;;;;4931902;28;20248;-87
2021/09/17 03:44:22;;;;;;;10.18;8.23;;;13.80;98.80;;;;;;4932027;28;20309;-89
2021/09/17 03:46:50;;;;;;;10.82;8.60;;;13.90;98.40;;;;;;4920875;28;20214;-88
2021/09/17 03:49:17;;;;;;;13.40;9.32;;;13.90;98.20;;;;;;4911226;28;20289;-88
2021/09/17 03:51:44;;;;;;;11.70;9.05;;;13.90;98.00;;;;;;4947857;28;20195;-87
2021/09/17 03:54:13;;;;;;;10.88;9.30;;;13.90;98.10;;;;;;4978387;28;20337;-88
2021/09/17 03:56:40;;;;;;;10.55;9.07;;;13.80;98.30;;;;;;4947009;28;20230;-88
2021/09/17 03:59:07;;;;;;;13.10;9.20;;;13.80;98.40;;;;;;4927232;28;20317;-88
2021/09/17 04:01:36;;;;;;;12.82;9.75;;;13.80;98.50;;;;;;4929402;28;20217;-89
2021/09/17 04:04:03;;;;;;;10.85;9.05;;;13.80;98.50;;;;;;4915944;28;20256;-88
2021/09/17 04:06:30;;;;;;;10.32;8.88;;;13.70;98.70;;;;;;4944560;28;20266;-88
2021/09/17 04:08:57;;;;;;;10.73;8.52;;;13.80;98.60;;;;;;4944817;28;20774;-88
2021/09/17 04:11:25;;;;;;;10.52;8.95;;;13.80;98.30;;;;;;4923650;28;20213;-88
2021/09/17 04:13:52;;;;;;;13.52;10.27;;;13.80;98.40;;;;;;4936918;28;20242;-88
2021/09/17 04:16:20;;;;;;;10.80;9.65;;;13.70;98.20;;;;;;4926689;28;20222;-88
2021/09/17 04:18:47;;;;;;;14.00;9.15;;;13.80;98.40;;;;;;4941077;28;20245;-88
2021/09/17 04:21:14;;;;;;;12.77;9.48;;;13.80;98.10;;;;;;4927420;28;20241;-88
2021/09/17 04:23:41;;;;;;;11.35;9.32;;;13.90;97.90;;;;;;4925995;28;20222;-87
2021/09/17 04:26:08;;;;;;;10.68;8.90;;;13.90;97.70;;;;;;4922347;28;20266;-89
2021/09/17 04:28:36;;;;;;;13.50;9.43;;;13.90;97.70;;;;;;4917896;28;20313;-88
2021/09/17 04:31:07;;;;;;;12.27;9.07;;;14.00;97.50;;;;;;4921266;28;20245;-88
2021/09/17 04:33:34;;;;;;;12.00;8.63;;;13.90;97.60;;;;;;4948631;28;20237;-89
2021/09/17 04:36:02;;;;;;;11.38;9.07;;;13.90;97.70;;;;;;4928857;28;20290;-87
2021/09/17 04:38:29;;;;;;;11.35;9.35;;;13.90;97.60;;;;;;4905696;28;20285;-88
2021/09/17 04:40:56;;;;;;;10.73;9.60;;;14.00;97.70;;;;;;4894712;28;20210;-88
2021/09/17 04:43:23;;;;;;;11.25;9.20;;;14.00;97.80;;;;;;4925706;28;20884;-89
2021/09/17 04:45:51;;;;;;;14.25;9.85;;;14.00;97.60;;;;;;4928157;28;20288;-88
2021/09/17 04:48:19;;;;;;;11.10;9.25;;;13.90;97.70;;;;;;4937598;28;20290;-88
2021/09/17 04:50:46;;;;;;;13.90;9.52;;;13.80;97.90;;;;;;4904967;28;20213;-88
2021/09/17 04:53:13;;;;;;;12.13;9.93;;;13.80;98.10;;;;;;4922781;28;20222;-87
2021/09/17 04:55:41;;;;;;;15.32;9.77;;;13.80;98.30;;;;;;4949846;28;20234;-88
2021/09/17 04:58:10;;;;;;;12.88;9.85;;;13.90;98.10;;;;;;4930715;28;20357;-89
2021/09/17 05:00:38;;;;;;;11.38;9.15;;;14.00;97.80;;;;;;4932109;28;20202;-89
2021/09/17 05:03:07;;;;;;;10.75;9.65;;;14.00;97.60;;;;;;4919424;28;20245;-89
2021/09/17 05:05:34;;;;;;;15.85;9.38;;;14.10;97.70;;;;;;4929393;28;20206;-90
2021/09/17 05:08:01;;;;;;;12.38;9.50;;;14.10;97.60;;;;;;4923626;28;20226;-88
2021/09/17 05:10:29;;;;;;;12.02;9.55;;;14.10;97.30;;;;;;4923005;28;20274;-87
2021/09/17 05:12:56;;;;;;;12.52;9.95;;;14.10;97.50;;;;;;4923556;28;20234;-88
2021/09/17 05:15:26;;;;;;;10.70;8.80;;;14.10;97.30;;;;;;4910113;28;20214;-88
2021/09/17 05:17:53;;;;;;;13.15;9.77;;;14.10;97.30;;;;;;4922156;28;20248;-89
2021/09/17 05:20:21;;;;;;;11.80;9.07;;;14.20;97.30;;;;;;4926320;28;20199;-89
2021/09/17 05:22:49;;;;;;;11.88;8.82;;;14.20;97.30;;;;;;4923686;28;20250;-88
2021/09/17 05:25:18;;;;;;;11.85;9.43;;;14.20;97.30;;;;;;4925184;28;20282;-88
2021/09/17 05:27:45;;;;;;;14.02;11.40;;;14.20;97.20;;;;;;4927158;28;20226;-90
2021/09/17 05:30:12;;;;;;;11.02;9.60;;;14.20;97.10;;;;;;4923670;28;20219;-87
2021/09/17 05:32:39;;;;;;;12.35;9.18;;;14.10;97.00;;;;;;4919414;28;20314;-86
2021/09/17 05:35:08;;;;;;;11.93;10.05;;;14.10;97.30;;;;;;4907954;28;20242;-86
2021/09/17 05:37:37;;;;;;;12.00;9.82;;;14.10;97.20;;;;;;4926175;28;20254;-87
2021/09/17 05:40:05;;;;;;;12.48;9.63;;;14.20;97.10;;;;;;4925493;28;20214;-87
2021/09/17 05:42:32;;;;;;;11.05;9.40;;;14.20;97.40;;;;;;4930962;28;20289;-87
2021/09/17 05:44:59;;;;;;;10.90;9.10;;;14.10;97.70;;;;;;4922437;28;20639;-90
2021/09/17 05:47:26;;;;;;;13.98;9.43;;;14.20;97.80;;;;;;4927537;28;20257;-91
2021/09/17 05:49:52;;;;;;;11.82;9.70;;;14.20;97.80;;;;;;4922101;28;20226;-90
2021/09/17 05:52:19;;;;;;;12.43;10.15;;;14.30;97.70;;;;;;4919634;28;20281;-90
2021/09/17 05:54:48;;;;;;;14.20;9.88;;;14.40;97.30;;;;;;4954433;28;20291;-91
2021/09/17 05:57:15;;;;;;;11.80;10.57;;;14.50;96.80;;;;;;4925455;28;20249;-93
2021/09/17 05:59:42;;;;;;;13.80;10.07;;;14.60;96.80;;;;;;4910531;28;20227;-91
2021/09/17 06:02:09;;;;;;;12.82;10.05;;;14.60;96.70;;;;;;4913241;28;20587;-91
2021/09/17 06:04:36;;;;;;;13.35;9.68;;;14.60;96.70;;;;;;4917285;28;20236;-91
2021/09/17 06:07:03;;;;;;;14.77;10.23;;;14.60;96.80;;;;;;4917557;28;20588;-90
2021/09/17 06:09:30;;;;;;;13.18;10.30;;;14.60;96.80;;;;;;4910112;28;20206;-91
2021/09/17 06:11:59;;;;;;;11.38;9.88;;;14.60;96.80;;;;;;4908729;28;20210;-91
2021/09/17 06:14:26;;;;;;;11.48;10.30;;;14.70;96.80;;;;;;4905596;28;20309;-91
2021/09/17 06:16:53;;;;;;;16.48;10.95;;;14.70;97.10;;;;;;4910282;28;20612;-91
2021/09/17 06:19:20;;;;;;;15.60;10.80;;;14.80;96.80;;;;;;4920245;28;20238;-87
2021/09/17 06:21:47;;;;;;;11.55;9.75;;;15.00;95.70;;;;;;4913617;28;20590;-89
2021/09/17 06:24:15;;;;;;;12.25;10.60;;;14.90;96.10;;;;;;4918480;28;20237;-88
2021/09/17 06:26:42;;;;;;;11.38;10.10;;;15.10;95.70;;;;;;4913501;28;20216;-89
2021/09/17 06:29:10;;;;;;;13.23;10.25;;;15.30;94.50;;;;;;4906416;28;20233;-89
2021/09/17 06:31:38;;;;;;;11.70;10.13;;;15.30;94.70;;;;;;4917044;28;20207;-89
2021/09/17 06:34:06;;;;;;;13.40;10.10;;;15.40;94.70;;;;;;4905354;28;20230;-89
2021/09/17 06:36:33;;;;;;;13.38;10.52;;;15.60;94.20;;;;;;4924273;28;20232;-89
2021/09/17 06:39:01;;;;;;;11.27;10.07;;;15.70;93.20;;;;;;4923632;28;20701;-89
2021/09/17 06:41:29;;;;;;;12.27;10.30;;;15.80;93.00;;;;;;4908100;28;20235;-91
2021/09/17 06:43:57;;;;;;;13.07;10.35;;;15.90;92.70;;;;;;4913593;28;20303;-91
2021/09/17 06:46:26;;;;;;;13.50;9.93;;;15.90;92.50;;;;;;4909675;28;20562;-90
2021/09/17 06:48:53;;;;;;;12.35;10.05;;;16.00;92.10;;;;;;4922422;28;20227;-89
2021/09/17 06:51:20;;;;;;;15.13;10.73;;;15.90;92.60;;;;;;4916623;28;20210;-89
2021/09/17 06:53:47;;;;;;;10.70;9.60;;;15.80;92.70;;;;;;4919368;28;20248;-90
2021/09/17 06:56:14;;;;;;;12.10;10.63;;;15.90;93.10;;;;;;4915898;28;20578;-90
2021/09/17 06:58:41;;;;;;;11.50;9.98;;;16.00;92.90;;;;;;4920467;28;20231;-90
2021/09/17 07:01:09;;;;;;;10.70;9.43;;;16.10;93.10;;;;;;4916386;28;20242;-90
2021/09/17 07:03:37;;;;;;;10.77;9.35;;;16.30;93.10;;;;;;4907967;28;20233;-89
2021/09/17 07:06:04;;;;;;;11.18;9.63;;;16.50;92.20;;;;;;4922152;28;20208;-90
2021/09/17 07:08:34;;;;;;;11.82;9.02;;;16.60;91.80;;;;;;4914920;28;20226;-91
2021/09/17 07:11:01;;;;;;;11.15;9.10;;;16.60;91.80;;;;;;4895851;29;20199;-90
2021/09/17 07:13:28;;;;;;;11.40;9.20;;;16.60;91.20;;;;;;4900177;28;20310;-90
2021/09/17 07:15:56;;;;;;;11.07;9.20;;;16.50;90.90;;;;;;4923927;28;20307;-90
2021/09/17 07:18:23;;;;;;;13.40;9.93;;;16.60;91.10;;;;;;4920146;28;20700;-91
2021/09/17 07:20:51;;;;;;;15.45;9.73;;;16.50;91.30;;;;;;4944032;28;20320;-91
2021/09/17 07:23:19;;;;;;;12.55;9.77;;;16.60;91.80;;;;;;4909143;28;20245;-91
2021/09/17 07:25:46;;;;;;;11.57;10.18;;;16.60;91.80;;;;;;4920894;28;20651;-90
2021/09/17 07:28:14;;;;;;;18.20;10.23;;;16.50;91.80;;;;;;4919530;28;20732;-89
2021/09/17 07:30:41;;;;;;;15.55;9.73;;;16.60;91.80;;;;;;4920091;28;20199;-90
2021/09/17 07:33:08;;;;;;;10.57;9.00;;;16.60;91.10;;;;;;4905535;28;20751;-90
2021/09/17 07:35:35;;;;;;;10.10;9.10;;;16.90;90.40;;;;;;4898610;28;20218;-90
2021/09/17 07:38:04;;;;;;;10.75;8.77;;;17.00;88.70;;;;;;4899850;28;20242;-90
2021/09/17 07:40:34;;;;;;;13.57;10.13;;;17.20;89.20;;;;;;4919593;28;20253;-85
2021/09/17 07:43:01;;;;;;;10.98;9.85;;;17.30;88.10;;;;;;4927565;28;20230;-86
2021/09/17 07:45:28;;;;;;;11.45;9.50;;;17.50;86.60;;;;;;4929963;28;20221;-85
2021/09/17 07:47:56;;;;;;;10.85;9.25;;;17.60;84.80;;;;;;4911550;28;20585;-86
2021/09/17 07:50:24;;;;;;;9.77;8.85;;;17.60;83.10;;;;;;4918286;28;20205;-86
2021/09/17 07:52:51;;;;;;;13.57;9.35;;;17.40;83.30;;;;;;4921770;28;20325;-89
2021/09/17 07:55:20;;;;;;;9.93;8.93;;;17.70;82.50;;;;;;4956813;28;20257;-89
2021/09/17 07:57:47;;;;;;;9.50;8.23;;;17.80;84.00;;;;;;4954528;28;20236;-90
2021/09/17 08:00:17;;;;;;;10.25;9.02;;;18.00;83.30;;;;;;4951407;28;20317;-89
2021/09/17 08:02:45;;;;;;;11.25;9.55;;;18.30;79.70;;;;;;4928266;28;20228;-89
2021/09/17 08:05:13;;;;;;;11.27;8.32;;;17.90;79.30;;;;;;4916455;28;20198;-89
2021/09/17 08:07:40;;;;;;;10.70;7.97;;;18.00;79.40;;;;;;4901362;28;20778;-90
2021/09/17 08:10:08;;;;;;;10.35;8.10;;;18.10;79.50;;;;;;4944994;28;20211;-90
2021/09/17 08:12:37;;;;;;;9.18;8.27;;;18.10;79.50;;;;;;4919539;28;20238;-90
2021/09/17 08:15:08;;;;;;;10.63;7.85;;;18.30;80.90;;;;;;4921703;28;20210;-89
2021/09/17 08:17:35;;;;;;;8.52;7.43;;;18.20;79.50;;;;;;4922581;28;20226;-88
2021/09/17 08:20:02;;;;;;;7.63;6.72;;;18.30;79.60;;;;;;4920560;28;20206;-90
2021/09/17 08:22:30;;;;;;;7.63;6.82;;;18.70;79.30;;;;;;4904653;28;20222;-92
2021/09/17 08:24:57;;;;;;;9.05;7.03;;;18.90;74.60;;;;;;4887053;28;20571;-92
2021/09/17 08:27:24;;;;;;;8.00;6.40;;;18.90;73.90;;;;;;4909084;28;20245;-91
2021/09/17 08:32:34;;;;;;;8.60;6.68;;;18.80;73.90;;;;;;4904366;28;20313;-92
2021/09/17 08:35:01;;;;;;;7.25;6.22;;;18.70;75.30;;;;;;4923733;28;20207;-91
2021/09/17 08:37:28;;;;;;;7.32;5.93;;;18.60;77.70;;;;;;4917607;28;20233;-91
2021/09/17 08:39:55;;;;;;;8.25;6.75;;;18.70;75.10;;;;;;4901201;29;20202;-91
2021/09/17 08:42:23;;;;;;;11.25;6.03;;;18.60;75.00;;;;;;4920468;28;20217;-92
2021/09/17 08:44:50;;;;;;;6.78;6.07;;;18.30;77.50;;;;;;4925371;28;20581;-90
2021/09/17 08:50:00;;;;;;;12.80;6.95;;;18.00;79.40;;;;;;4929975;28;20651;-90
2021/09/17 08:52:27;;;;;;;8.52;6.00;;;17.70;79.20;;;;;;4903020;28;20277;-89
2021/09/17 08:54:54;;;;;;;6.70;6.07;;;17.60;81.70;;;;;;4925003;28;20224;-89
2021/09/17 08:57:21;;;;;;;6.88;5.57;;;17.70;82.10;;;;;;4937706;28;20237;-88
2021/09/17 08:59:48;;;;;;;5.65;5.00;;;17.80;79.30;;;;;;4920707;28;20211;-90
2021/09/17 09:02:23;;;;;;;6.20;5.47;;;17.70;81.70;;;;;;4917882;28;20212;-89
2021/09/17 09:04:58;;;;;;;6.60;5.43;;;17.90;79.30;;;;;;4927296;28;20206;-90
2021/09/17 09:07:31;;;;;;;8.63;6.00;;;17.70;79.20;;;;;;4905853;28;20237;-90
2021/09/17 09:10:06;;;;;;;6.07;5.47;;;17.70;80.40;;;;;;4911982;28;20286;-90
2021/09/17 09:12:35;;;;;;;7.15;6.47;;;17.70;79.20;;;;;;4908627;28;20240;-91
2021/09/17 09:15:17;;;;;;;8.15;6.20;;;17.70;79.20;;;;;;4924834;28;20217;-91
2021/09/17 09:20:30;;;;;;;7.00;5.38;;;17.30;81.50;;;;;;4917176;28;20209;-92
2021/09/17 09:23:11;;;;;;;5.93;5.28;;;17.30;85.30;;;;;;4930404;28;20229;-92
2021/09/17 09:25:50;;;;;;;9.32;5.63;;;17.20;85.00;;;;;;4930547;28;20208;-92
2021/09/17 09:28:19;;;;;;;10.07;5.95;;;17.10;85.20;;;;;;4958028;28;20238;-93
2021/09/17 09:30:47;;;;;;;8.70;5.88;;;17.20;86.10;;;;;;4935584;28;20238;-92
2021/09/17 09:33:47;;;;;;;7.30;5.13;;;17.30;84.80;;;;;;4917690;28;20240;-95
2021/09/17 09:36:17;;;;;;;5.78;4.55;;;17.50;84.90;;;;;;4937167;28;20293;-94
2021/09/17 09:38:46;;;;;;;5.97;4.68;;;17.60;75.50;;;;;;4937964;28;20326;-92
2021/09/17 09:41:16;;;;;;;4.85;4.30;;;17.80;71.90;;;;;;4927030;28;20211;-92
2021/09/17 09:43:51;;;;;;;4.57;4.13;;;17.70;68.30;;;;;;4920345;28;20237;-92
2021/09/17 09:46:29;;;;;;;5.65;3.92;;;17.90;64.80;;;;;;4933686;28;20204;-88
2021/09/17 09:49:10;;;;;;;5.88;4.00;;;18.30;66.80;;;;;;4942768;28;20698;-87
2021/09/17 09:51:39;;;;;;;4.30;3.80;;;18.50;68.20;;;;;;4947901;28;20195;-88
2021/09/17 09:54:09;;;;;;;4.55;4.10;;;18.40;64.70;;;;;;4906988;28;20222;-92
2021/09/17 09:56:38;;;;;;;4.78;4.38;;;18.30;65.50;;;;;;4930682;28;20230;-89
2021/09/17 09:59:07;;;;;;;5.47;4.50;;;18.10;67.00;;;;;;4941006;28;20233;-89
2021/09/17 10:01:36;;;;;;;10.18;4.82;;;18.00;69.00;;;;;;4924443;28;20237;-89
2021/09/17 10:04:13;;;;;;;6.82;4.53;;;17.90;75.20;;;;;;4917176;28;20230;-90
2021/09/17 10:06:41;;;;;;;6.28;4.40;;;17.90;68.00;;;;;;4910190;28;20213;-89
2021/09/17 10:09:10;;;;;;;5.60;4.30;;;17.80;70.10;;;;;;4954177;28;20230;-90
2021/09/17 10:11:38;;;;;;;5.40;4.90;;;18.10;67.00;;;;;;4934723;28;20205;-89
2021/09/17 10:14:11;;;;;;;5.28;4.55;;;18.20;63.50;;;;;;4922170;28;20234;-89
2021/09/17 10:16:38;;;;;;;4.85;4.10;;;18.30;61.20;;;;;;4937955;28;20233;-85
2021/09/17 10:19:05;;;;;;;6.72;4.38;;;18.80;61.30;;;;;;4939146;28;20240;-85
2021/09/17 10:22:07;;;;;;;6.30;5.20;;;19.20;62.10;;;;;;4931053;28;20212;-86
2021/09/17 10:24:42;;;;;;;2.67;2.47;;;19.20;53.80;;;;;;4887944;28;20310;-87
2021/09/17 10:27:13;;;;;;;3.05;2.30;;;19.10;46.20;;;;;;4874552;28;20271;-86
2021/09/17 10:29:42;;;;;;;3.55;3.00;;;19.20;46.80;;;;;;4904564;28;20683;-87
2021/09/17 10:32:38;;;;;;;4.47;3.58;;;19.40;46.60;;;;;;4915144;28;20294;-86
2021/09/17 10:35:11;;;;;;;3.42;3.13;;;19.40;44.00;;;;;;4925627;28;20429;-86
2021/09/17 10:37:57;;;;;;;3.70;2.90;;;19.50;45.90;;;;;;4926491;28;20245;-87
2021/09/17 10:40:44;;;;;;;4.78;3.17;;;19.70;45.30;;;;;;4961359;28;20237;-86
2021/09/17 10:43:30;;;;;;;3.35;2.50;;;19.90;43.40;;;;;;4927918;28;20611;-87
2021/09/17 10:45:58;;;;;;;2.70;2.33;;;20.00;42.30;;;;;;4920200;28;20734;-85
2021/09/17 10:48:29;;;;;;;2.65;2.45;;;19.90;42.10;;;;;;4921816;28;20234;-86
2021/09/17 10:51:04;;;;;;;4.40;2.63;;;20.00;40.50;;;;;;4910063;28;20742;-86
2021/09/17 10:53:56;;;;;;;4.15;2.75;;;19.80;43.00;;;;;;4935280;28;20226;-87
2021/09/17 10:56:23;;;;;;;3.38;2.45;;;19.80;43.60;;;;;;4906354;28;20207;-86
2021/09/17 10:59:09;;;;;;;3.53;3.22;;;19.50;40.00;;;;;;4918779;28;20231;-88
2021/09/17 11:01:49;;;;;;;3.25;3.03;;;19.60;40.80;;;;;;4926101;28;20242;-88
2021/09/17 11:04:26;;;;;;;4.15;2.90;;;19.60;41.90;;;;;;4920663;28;20231;-88
2021/09/17 11:06:53;;;;;;;3.65;2.70;;;19.80;43.10;;;;;;4921712;28;20229;-89
2021/09/17 11:09:42;;;;;;;3.15;2.85;;;19.70;43.60;;;;;;4910239;28;20237;-89
2021/09/17 11:12:17;;;;;;;2.85;2.42;;;19.70;43.60;;;;;;4904571;28;20230;-88
2021/09/17 11:14:44;;;;;;;3.13;2.45;;;19.60;43.50;;;;;;4924901;28;20210;-87
2021/09/17 11:17:11;;;;;;;3.90;2.80;;;19.60;42.00;;;;;;4918265;28;20629;-86
2021/09/17 11:23:40;;;;;;;3.08;2.65;;;19.90;42.20;;;;;;4927742;28;20232;-84
2021/09/17 11:26:07;;;;;;;3.92;2.30;;;20.10;39.40;;;;;;4925978;28;20187;-83
2021/09/17 11:29:23;;;;;;;5.55;2.45;;;20.00;40.10;;;;;;4930305;28;20326;-83
2021/09/17 11:31:53;;;;;;;3.95;2.45;;;20.10;40.30;;;;;;4921479;28;20257;-83
2021/09/17 11:34:22;;;;;;;2.03;1.92;;;20.30;41.60;;;;;;4936505;28;20309;-84
2021/09/17 11:37:08;;;;;;;2.20;2.00;;;20.30;40.80;;;;;;4937527;29;20229;-87
2021/09/17 11:39:42;;;;;;;2.20;2.00;;;20.20;40.00;;;;;;4911592;28;20207;-85
2021/09/17 11:45:32;;;;;;;3.22;2.10;;;20.40;41.10;;;;;;4923628;29;20177;-86
2021/09/17 11:48:00;;;;;;;2.50;2.30;;;20.00;37.30;;;;;;4917829;28;20301;-87
2021/09/17 11:50:29;;;;;;;2.05;1.85;;;19.80;38.30;;;;;;4926895;29;20212;-85
2021/09/17 11:52:56;;;;;;;2.35;2.15;;;19.60;37.60;;;;;;4948027;28;20645;-85
2021/09/17 11:55:42;;;;;;;2.20;2.00;;;19.20;36.70;;;;;;4993331;28;20202;-87
2021/09/17 11:58:09;;;;;;;2.22;2.03;;;18.90;37.10;;;;;;4925653;28;20242;-85
2021/09/17 12:01:15;;;;;;;3.80;1.80;;;18.70;37.90;;;;;;4985068;28;20602;-87
2021/09/17 12:03:42;;;;;;;3.15;2.10;;;18.80;39.30;;;;;;4919355;28;20231;-86
2021/09/17 12:06:18;;;;;;;2.78;2.58;;;19.00;40.90;;;;;;4919490;28;20210;-90
2021/09/17 12:08:47;;;;;;;4.30;2.40;;;19.20;39.00;;;;;;4928306;28;20285;-90
2021/09/17 12:11:22;;;;;;;2.75;2.55;;;19.20;35.50;;;;;;4905215;28;20203;-90
2021/09/17 12:13:55;;;;;;;3.50;2.20;;;19.20;37.40;;;;;;4934942;28;20321;-90
2021/09/17 12:16:22;;;;;;;2.70;1.92;;;19.40;35.20;;;;;;4898081;28;20564;-90
2021/09/17 12:19:01;;;;;;;4.15;2.22;;;19.50;35.90;;;;;;4910807;28;20249;-90
2021/09/17 12:21:28;;;;;;;3.28;2.20;;;19.60;36.90;;;;;;4925766;28;20206;-90
2021/09/17 12:23:57;;;;;;;3.15;2.00;;;19.60;34.20;;;;;;4909357;28;20262;-90
2021/09/17 12:29:16;;;;;;;2.58;2.10;;;19.80;35.50;;;;;;4906047;28;20234;-90
2021/09/17 12:31:43;;;;;;;3.05;1.80;;;19.90;36.20;;;;;;4909623;28;20646;-90
2021/09/17 12:34:13;;;;;;;2.30;1.90;;;20.10;34.80;;;;;;4918367;28;20314;-90
2021/09/17 12:39:29;;;;;;;5.60;2.20;;;20.20;35.30;;;;;;4894709;28;20710;-92
2021/09/17 12:42:08;;;;;;;2.67;2.10;;;20.20;34.60;;;;;;4911260;28;20207;-92
2021/09/17 12:44:40;;;;;;;3.17;2.15;;;20.10;34.70;;;;;;4917365;28;20652;-91
2021/09/17 12:47:06;;;;;;;2.80;2.50;;;20.30;32.40;;;;;;4910125;28;20209;-91
2021/09/17 12:49:33;;;;;;;2.95;2.70;;;20.40;33.20;;;;;;4910306;28;20642;-92
2021/09/17 12:52:00;;;;;;;2.47;2.20;;;20.70;34.70;;;;;;4910082;28;20203;-91
2021/09/17 12:54:34;;;;;;;1.95;1.85;;;20.80;35.10;;;;;;4919740;28;20226;-91
2021/09/17 12:57:18;;;;;;;2.10;2.00;;;20.90;35.70;;;;;;4915178;28;20217;-91
2021/09/17 13:00:04;;;;;;;2.17;2.00;;;20.90;32.80;;;;;;4921760;28;20226;-91
2021/09/17 13:02:31;;;;;;;2.30;2.10;;;20.60;32.50;;;;;;4911330;28;20310;-89
2021/09/17 13:04:59;;;;;;;2.30;2.20;;;20.40;32.40;;;;;;4923419;28;20217;-90
2021/09/17 13:07:26;;;;;;;2.90;2.15;;;20.60;34.70;;;;;;4926182;28;20207;-91
2021/09/17 13:09:53;;;;;;;2.30;2.10;;;20.70;34.60;;;;;;4914301;28;20627;-90
2021/09/17 13:12:22;;;;;;;2.50;2.30;;;20.50;32.50;;;;;;4923332;28;20694;-90